Time;durP1;ratioP1;P1;durP2;ratioP2;P2;SDS_P1;SDS_P2;PMS_P1;PMS_P2;Temp;Humidity;BMP_temperature;BMP_pressure;BME280_temperature;BME280_humidity;BME280_pressure;Samples;Min_cycle;Max_cycle;Signal;HPM_P1;HPM_P2
2022/11/10 00:02:17;;;;;;;65.28;39.15;;;;;;;;;;4990844;28;20049;-70
2022/11/10 00:05:02;;;;;;;67.82;39.95;;;;;;;;;;4991876;28;20084;-70
2022/11/10 00:07:46;;;;;;;63.00;39.58;;;;;;;;;;4991567;28;20101;-70
2022/11/10 00:10:31;;;;;;;59.90;36.50;;;;;;;;;;4991197;28;20077;-71
2022/11/10 00:13:16;;;;;;;54.85;36.22;;;;;;;;;;4975872;28;20125;-72
2022/11/10 00:19:06;;;;;;;62.75;40.45;;;;;;;;;;4970011;28;20121;-71
2022/11/10 00:21:50;;;;;;;55.58;36.45;;;;;;;;;;4951974;28;20055;-71
2022/11/10 00:24:34;;;;;;;60.30;37.95;;;;;;;;;;4953685;28;20102;-71
2022/11/10 00:27:19;;;;;;;60.50;36.75;;;;;;;;;;4946154;28;20054;-71
2022/11/10 00:30:05;;;;;;;69.93;40.53;;;;;;;;;;4951782;28;20054;-71
2022/11/10 00:36:30;;;;;;;64.35;36.10;;;;;;;;;;4948382;28;20102;-71
2022/11/10 00:39:15;;;;;;;55.30;36.35;;;;;;;;;;4953687;28;20053;-70
2022/11/10 00:41:59;;;;;;;58.22;38.17;;;;;;;;;;4947885;28;20058;-71
2022/11/10 00:44:44;;;;;;;59.00;35.33;;;;;;;;;;4949933;28;20508;-71
2022/11/10 00:47:28;;;;;;;75.35;41.92;;;;;;;;;;4948844;28;20526;-72
2022/11/10 00:50:13;;;;;;;66.22;38.92;;;;;;;;;;4948853;29;20078;-70
2022/11/10 00:52:57;;;;;;;66.55;38.75;;;;;;;;;;4951933;28;20086;-71
2022/11/10 00:55:41;;;;;;;63.15;38.70;;;;;;;;;;4948858;28;20049;-71
2022/11/10 00:58:26;;;;;;;60.80;37.00;;;;;;;;;;4951465;28;20050;-71
2022/11/10 01:01:12;;;;;;;63.55;35.90;;;;;;;;;;4947286;28;20101;-71
2022/11/10 01:03:56;;;;;;;52.22;32.63;;;;;;;;;;4952853;28;20090;-71
2022/11/10 01:06:40;;;;;;;49.42;32.50;;;;;;;;;;4941839;28;20135;-71
2022/11/10 01:09:25;;;;;;;52.72;30.88;;;;;;;;;;4949354;28;20058;-71
2022/11/10 01:12:09;;;;;;;54.40;32.72;;;;;;;;;;4947343;28;20545;-71
2022/11/10 01:14:55;;;;;;;54.83;31.98;;;;;;;;;;4953212;28;20140;-72
2022/11/10 01:17:39;;;;;;;54.63;31.58;;;;;;;;;;4952392;28;20101;-71
2022/11/10 01:20:24;;;;;;;50.05;31.05;;;;;;;;;;4951907;28;20553;-71
2022/11/10 01:23:09;;;;;;;47.05;31.23;;;;;;;;;;4944607;28;20123;-71
2022/11/10 01:26:02;;;;;;;52.15;31.95;;;;;;;;;;4957933;28;21086;-71
2022/11/10 01:28:47;;;;;;;46.40;30.00;;;;;;;;;;4948624;28;20120;-70
2022/11/10 01:31:32;;;;;;;52.90;31.48;;;;;;;;;;4943955;28;20054;-70
2022/11/10 01:34:16;;;;;;;58.40;33.58;;;;;;;;;;4952151;28;20054;-71
2022/11/10 01:37:02;;;;;;;57.47;34.45;;;;;;;;;;4952072;28;20054;-70
2022/11/10 01:39:46;;;;;;;55.13;34.05;;;;;;;;;;4952164;28;20098;-71
2022/11/10 01:42:48;;;;;;;53.17;31.15;;;;;;;;;;4950173;28;20053;-70
2022/11/10 01:45:42;;;;;;;63.47;35.58;;;;;;;;;;4949729;28;20568;-72
2022/11/10 01:48:35;;;;;;;;;;;;;;;;;;4946680;28;20046;-71
2022/11/10 01:51:22;;;;;;;51.30;32.15;;;;;;;;;;4949571;28;19926;-71
2022/11/10 01:54:10;;;;;;;49.05;31.15;;;;;;;;;;4951777;28;20050;-71
2022/11/10 01:57:12;;;;;;;48.28;31.83;;;;;;;;;;4962575;28;20061;-71
2022/11/10 01:59:57;;;;;;;50.58;33.28;;;;;;;;;;4988906;28;20057;-71
2022/11/10 02:02:48;;;;;;;50.40;32.40;;;;;;;;;;4989814;28;20062;-71
2022/11/10 02:05:33;;;;;;;57.45;33.75;;;;;;;;;;4989600;28;20195;-70
2022/11/10 02:08:18;;;;;;;54.00;32.30;;;;;;;;;;4989631;28;20073;-71
2022/11/10 02:11:03;;;;;;;53.30;33.33;;;;;;;;;;4990173;28;20128;-70
2022/11/10 02:13:48;;;;;;;58.45;33.72;;;;;;;;;;4987411;28;20053;-71
2022/11/10 02:16:32;;;;;;;54.72;32.97;;;;;;;;;;4975813;28;20053;-71
2022/11/10 02:19:22;;;;;;;48.42;31.75;;;;;;;;;;4937778;28;1422470;-72
2022/11/10 02:22:06;;;;;;;47.13;30.85;;;;;;;;;;4990412;28;20045;-71
2022/11/10 02:24:50;;;;;;;43.47;28.80;;;;;;;;;;4991926;28;20100;-71
2022/11/10 02:27:35;;;;;;;59.90;32.92;;;;;;;;;;4990880;28;20040;-71
2022/11/10 02:30:19;;;;;;;52.22;32.55;;;;;;;;;;4994579;28;20056;-71
2022/11/10 02:33:03;;;;;;;53.58;32.03;;;;;;;;;;4994406;28;20097;-70
2022/11/10 02:35:48;;;;;;;54.00;31.15;;;;;;;;;;4966194;28;20081;-71
2022/11/10 02:38:32;;;;;;;59.70;34.08;;;;;;;;;;4991778;28;20117;-71
2022/11/10 02:41:17;;;;;;;55.72;33.05;;;;;;;;;;4993202;28;20050;-70
2022/11/10 02:44:03;;;;;;;53.05;32.55;;;;;;;;;;4994827;28;20048;-70
2022/11/10 02:46:48;;;;;;;57.22;31.45;;;;;;;;;;4992811;28;20059;-70
2022/11/10 02:49:32;;;;;;;50.95;29.75;;;;;;;;;;4994204;28;20546;-71
2022/11/10 02:52:17;;;;;;;58.38;32.30;;;;;;;;;;4988156;28;20096;-71
2022/11/10 02:55:01;;;;;;;55.10;33.72;;;;;;;;;;4994137;28;20404;-71
2022/11/10 02:57:46;;;;;;;58.67;34.75;;;;;;;;;;4992034;28;20104;-71
2022/11/10 03:00:30;;;;;;;56.80;32.25;;;;;;;;;;4994179;28;20507;-71
2022/11/10 03:03:14;;;;;;;52.28;32.80;;;;;;;;;;4986399;28;20081;-71
2022/11/10 03:05:59;;;;;;;55.00;32.25;;;;;;;;;;4992862;28;20073;-71
2022/11/10 03:08:44;;;;;;;45.45;29.40;;;;;;;;;;4990531;28;20056;-70
2022/11/10 03:11:29;;;;;;;55.15;31.25;;;;;;;;;;4988269;28;20049;-70
2022/11/10 03:14:13;;;;;;;59.17;31.98;;;;;;;;;;4994017;28;20424;-70
2022/11/10 03:16:57;;;;;;;56.78;32.85;;;;;;;;;;4992357;28;20515;-70
2022/11/10 03:19:42;;;;;;;56.55;32.80;;;;;;;;;;4995539;28;20060;-70
2022/11/10 03:22:26;;;;;;;51.58;32.05;;;;;;;;;;4987728;28;20451;-72
2022/11/10 03:25:11;;;;;;;57.75;32.08;;;;;;;;;;4994017;28;20112;-71
2022/11/10 03:27:56;;;;;;;52.17;30.70;;;;;;;;;;4993945;28;20411;-70
2022/11/10 03:30:41;;;;;;;48.40;30.80;;;;;;;;;;4989176;28;20089;-71
2022/11/10 03:33:26;;;;;;;49.28;30.00;;;;;;;;;;4991590;28;20081;-70
2022/11/10 03:36:10;;;;;;;58.65;32.55;;;;;;;;;;4984994;28;20049;-70
2022/11/10 03:38:55;;;;;;;52.85;32.25;;;;;;;;;;4989272;28;20064;-71
2022/11/10 03:41:40;;;;;;;59.58;34.25;;;;;;;;;;4992806;28;20040;-71
2022/11/10 03:44:24;;;;;;;57.75;33.28;;;;;;;;;;4986672;28;20057;-71
2022/11/10 03:47:09;;;;;;;59.13;32.40;;;;;;;;;;4991279;28;20070;-71
2022/11/10 03:49:53;;;;;;;58.03;31.58;;;;;;;;;;4991153;28;20124;-72
2022/11/10 03:52:40;;;;;;;55.40;32.92;;;;;;;;;;4991907;28;20053;-70
2022/11/10 03:55:25;;;;;;;59.83;32.92;;;;;;;;;;4991972;28;20446;-70
2022/11/10 03:58:10;;;;;;;47.10;30.42;;;;;;;;;;4991518;28;20057;-70
2022/11/10 04:00:55;;;;;;;48.90;28.08;;;;;;;;;;4990861;28;20045;-70
2022/11/10 04:03:40;;;;;;;53.65;28.20;;;;;;;;;;4991673;28;20428;-70
2022/11/10 04:09:27;;;;;;;55.60;30.25;;;;;;;;;;4986537;28;20069;-70
2022/11/10 04:18:57;;;;;;;56.38;30.83;;;;;;;;;;4991769;28;20523;-71
2022/11/10 04:21:41;;;;;;;53.10;31.83;;;;;;;;;;4992886;28;20125;-70
2022/11/10 04:24:26;;;;;;;50.03;31.90;;;;;;;;;;4993044;28;20467;-71
2022/11/10 04:27:10;;;;;;;55.33;31.60;;;;;;;;;;4992757;28;20069;-70
2022/11/10 04:29:55;;;;;;;54.08;31.20;;;;;;;;;;4976962;28;20057;-71
2022/11/10 04:32:39;;;;;;;55.22;32.05;;;;;;;;;;4992731;28;20105;-70
2022/11/10 04:35:24;;;;;;;54.10;31.77;;;;;;;;;;4992575;28;20089;-70
2022/11/10 04:38:08;;;;;;;56.92;31.70;;;;;;;;;;4991729;28;20137;-71
2022/11/10 04:40:52;;;;;;;56.28;32.38;;;;;;;;;;4992182;28;20126;-70
2022/11/10 04:43:37;;;;;;;53.55;32.75;;;;;;;;;;4992323;28;20134;-71
2022/11/10 04:46:32;;;;;;;55.55;31.80;;;;;;;;;;4991655;28;20181;-71
2022/11/10 04:49:17;;;;;;;61.33;33.72;;;;;;;;;;4991910;28;20495;-71
2022/11/10 04:52:02;;;;;;;67.43;37.20;;;;;;;;;;4985938;28;20045;-71
2022/11/10 04:54:46;;;;;;;72.53;37.83;;;;;;;;;;4989687;28;20100;-71
2022/11/10 04:57:31;;;;;;;71.35;37.13;;;;;;;;;;4989323;28;20064;-70
2022/11/10 05:00:15;;;;;;;63.97;36.03;;;;;;;;;;4981158;28;20566;-71
2022/11/10 05:03:02;;;;;;;61.35;35.20;;;;;;;;;;4991550;28;20049;-71
2022/11/10 05:05:46;;;;;;;68.53;36.50;;;;;;;;;;4988969;28;20061;-72
2022/11/10 05:08:31;;;;;;;72.65;38.22;;;;;;;;;;4991287;28;20078;-70
2022/11/10 05:11:16;;;;;;;70.40;35.70;;;;;;;;;;4972936;28;20420;-70
2022/11/10 05:14:00;;;;;;;70.88;35.47;;;;;;;;;;4978919;28;20415;-72
2022/11/10 05:16:44;;;;;;;55.70;34.95;;;;;;;;;;4990300;28;20085;-73
2022/11/10 05:19:29;;;;;;;51.20;31.27;;;;;;;;;;4990965;28;20222;-72
2022/11/10 05:22:14;;;;;;;57.67;32.45;;;;;;;;;;4989955;28;20061;-71
2022/11/10 05:24:58;;;;;;;62.58;32.78;;;;;;;;;;4991571;28;20140;-71
2022/11/10 05:27:42;;;;;;;58.70;32.70;;;;;;;;;;4971518;28;20129;-71
2022/11/10 05:30:27;;;;;;;51.70;30.17;;;;;;;;;;4970974;28;20057;-71
2022/11/10 05:33:12;;;;;;;68.57;34.38;;;;;;;;;;4971305;28;20106;-71
2022/11/10 05:35:57;;;;;;;69.93;35.47;;;;;;;;;;4971600;28;20575;-71
2022/11/10 05:38:41;;;;;;;72.60;36.28;;;;;;;;;;4977770;28;20128;-71
2022/11/10 05:41:26;;;;;;;67.10;34.03;;;;;;;;;;4991151;28;20113;-71
2022/11/10 05:44:10;;;;;;;61.08;32.35;;;;;;;;;;4991193;28;20108;-71
2022/11/10 05:46:54;;;;;;;58.50;31.35;;;;;;;;;;4991303;28;20106;-71
2022/11/10 05:49:39;;;;;;;60.78;34.53;;;;;;;;;;4990839;28;20112;-72
2022/11/10 05:52:23;;;;;;;61.50;34.85;;;;;;;;;;4989970;28;20510;-71
2022/11/10 05:55:08;;;;;;;65.68;35.83;;;;;;;;;;4989487;28;20495;-72
2022/11/10 05:57:54;;;;;;;65.38;35.03;;;;;;;;;;4990853;28;20129;-71
2022/11/10 06:00:39;;;;;;;58.38;33.70;;;;;;;;;;4994254;28;20061;-71
2022/11/10 06:03:23;;;;;;;61.78;32.10;;;;;;;;;;4994646;28;20808;-71
2022/11/10 06:06:08;;;;;;;62.88;33.20;;;;;;;;;;4974551;28;20142;-71
2022/11/10 06:08:52;;;;;;;61.63;32.55;;;;;;;;;;4986156;28;20104;-72
2022/11/10 06:11:36;;;;;;;59.47;33.65;;;;;;;;;;4991273;28;20135;-72
2022/11/10 06:14:20;;;;;;;59.90;34.65;;;;;;;;;;4993643;28;20060;-71
2022/11/10 06:17:05;;;;;;;65.75;35.92;;;;;;;;;;4994223;28;20456;-72
2022/11/10 06:19:49;;;;;;;70.00;35.50;;;;;;;;;;4992652;28;20065;-71
2022/11/10 06:22:34;;;;;;;68.18;36.67;;;;;;;;;;4993176;28;20048;-71
2022/11/10 06:25:18;;;;;;;65.63;36.78;;;;;;;;;;4993100;28;20514;-73
2022/11/10 06:28:04;;;;;;;74.18;37.67;;;;;;;;;;4994230;28;20459;-72
2022/11/10 06:30:48;;;;;;;70.63;37.33;;;;;;;;;;4992156;28;20507;-72
2022/11/10 06:33:33;;;;;;;79.05;38.50;;;;;;;;;;4992468;28;20405;-72
2022/11/10 06:36:17;;;;;;;68.22;36.50;;;;;;;;;;4993460;28;20148;-71
2022/11/10 06:39:02;;;;;;;65.50;35.78;;;;;;;;;;4995029;28;20077;-72
2022/11/10 06:41:46;;;;;;;61.83;36.35;;;;;;;;;;4995439;28;20069;-71
2022/11/10 06:44:31;;;;;;;66.57;35.33;;;;;;;;;;4995031;28;20192;-71
2022/11/10 06:47:17;;;;;;;64.95;34.45;;;;;;;;;;4992953;28;20428;-71
2022/11/10 06:50:02;;;;;;;72.90;35.92;;;;;;;;;;4994311;28;20124;-73
2022/11/10 06:52:53;;;;;;;63.72;37.00;;;;;;;;;;4994381;28;20518;-71
2022/11/10 06:55:38;;;;;;;62.88;34.65;;;;;;;;;;4994433;28;20057;-73
2022/11/10 06:58:22;;;;;;;61.00;35.25;;;;;;;;;;4994471;28;20093;-71
2022/11/10 07:01:06;;;;;;;62.83;34.83;;;;;;;;;;4994392;28;20112;-71
2022/11/10 07:03:54;;;;;;;61.65;36.13;;;;;;;;;;4994297;28;20049;-71
2022/11/10 07:06:38;;;;;;;70.05;36.70;;;;;;;;;;4993755;28;20077;-70
2022/11/10 07:09:23;;;;;;;60.65;36.97;;;;;;;;;;4993866;28;20061;-71
2022/11/10 07:12:07;;;;;;;66.70;38.25;;;;;;;;;;4994068;28;20154;-71
2022/11/10 07:14:52;;;;;;;65.72;37.65;;;;;;;;;;4994129;28;20420;-72
2022/11/10 07:17:40;;;;;;;58.88;34.50;;;;;;;;;;4994090;28;20404;-72
2022/11/10 07:20:25;;;;;;;68.63;38.92;;;;;;;;;;4994207;28;20535;-71
2022/11/10 07:23:09;;;;;;;73.03;37.90;;;;;;;;;;4994123;28;20124;-72
2022/11/10 07:25:54;;;;;;;66.20;37.67;;;;;;;;;;4993778;28;20112;-72
2022/11/10 07:28:38;;;;;;;66.53;38.78;;;;;;;;;;4992813;28;20045;-72
2022/11/10 07:31:23;;;;;;;64.85;39.13;;;;;;;;;;4992217;28;20046;-73
2022/11/10 07:34:08;;;;;;;61.30;36.90;;;;;;;;;;4993136;28;20057;-73
2022/11/10 07:36:53;;;;;;;74.47;40.50;;;;;;;;;;4982456;28;20062;-72
2022/11/10 07:39:37;;;;;;;77.40;39.00;;;;;;;;;;4991271;28;20072;-71
2022/11/10 07:42:22;;;;;;;76.38;40.22;;;;;;;;;;4992015;28;20056;-73
2022/11/10 07:45:07;;;;;;;68.80;40.05;;;;;;;;;;4992683;28;20155;-72
2022/11/10 07:47:58;;;;;;;62.70;39.22;;;;;;;;;;4992713;28;20049;-72
2022/11/10 07:50:43;;;;;;;84.72;40.08;;;;;;;;;;4992390;28;20045;-72
2022/11/10 07:53:29;;;;;;;72.32;39.28;;;;;;;;;;4991998;28;20093;-72
2022/11/10 07:56:13;;;;;;;65.10;37.85;;;;;;;;;;4988597;28;20081;-72
2022/11/10 07:58:57;;;;;;;66.35;38.95;;;;;;;;;;4990966;28;20412;-72
2022/11/10 08:01:42;;;;;;;67.85;40.08;;;;;;;;;;4991472;28;20068;-72
2022/11/10 08:04:26;;;;;;;57.70;36.90;;;;;;;;;;4991150;28;20084;-72
2022/11/10 08:07:10;;;;;;;64.05;36.17;;;;;;;;;;4992228;28;20045;-73
2022/11/10 08:09:55;;;;;;;60.67;39.00;;;;;;;;;;4990115;28;20122;-73
2022/11/10 08:12:39;;;;;;;65.18;37.63;;;;;;;;;;4990831;28;20148;-73
2022/11/10 08:15:26;;;;;;;66.90;38.38;;;;;;;;;;4988594;28;20168;-73
2022/11/10 08:18:22;;;;;;;57.08;37.63;;;;;;;;;;4991428;28;20125;-73
2022/11/10 08:21:07;;;;;;;61.53;38.28;;;;;;;;;;4990968;28;20087;-73
2022/11/10 08:23:51;;;;;;;61.53;38.15;;;;;;;;;;4991752;28;20527;-73
2022/11/10 08:26:35;;;;;;;78.22;40.45;;;;;;;;;;4992688;28;20357;-72
2022/11/10 08:29:19;;;;;;;69.72;38.30;;;;;;;;;;4992910;28;20057;-72
2022/11/10 08:32:04;;;;;;;68.22;40.40;;;;;;;;;;4988573;28;20057;-72
2022/11/10 08:34:48;;;;;;;70.22;40.42;;;;;;;;;;4988819;28;20048;-72
2022/11/10 08:37:33;;;;;;;66.03;40.75;;;;;;;;;;4991258;28;20132;-72
2022/11/10 08:40:19;;;;;;;72.32;40.17;;;;;;;;;;4991693;28;20419;-72
2022/11/10 08:43:07;;;;;;;67.30;40.30;;;;;;;;;;4988741;28;20096;-72
2022/11/10 08:45:55;;;;;;;68.85;40.78;;;;;;;;;;4989700;28;20096;-72
2022/11/10 08:48:41;;;;;;;72.60;42.15;;;;;;;;;;4991209;28;20049;-73
2022/11/10 08:51:25;;;;;;;64.40;39.30;;;;;;;;;;4987539;28;20053;-73
2022/11/10 08:54:09;;;;;;;63.72;40.35;;;;;;;;;;4989736;28;20108;-71
2022/11/10 08:56:54;;;;;;;70.72;41.67;;;;;;;;;;4989967;28;20037;-71
2022/11/10 08:59:38;;;;;;;66.03;39.53;;;;;;;;;;4989548;28;20105;-72
2022/11/10 09:02:23;;;;;;;65.43;41.30;;;;;;;;;;4985026;28;20080;-70
2022/11/10 09:05:08;;;;;;;76.35;39.40;;;;;;;;;;4987819;28;20523;-72
2022/11/10 09:07:52;;;;;;;60.70;38.78;;;;;;;;;;4992465;28;20506;-72
2022/11/10 09:10:40;;;;;;;67.95;39.70;;;;;;;;;;4990474;28;20053;-73
2022/11/10 09:13:25;;;;;;;70.60;41.17;;;;;;;;;;4990425;28;20412;-72
2022/11/10 09:16:10;;;;;;;58.03;37.45;;;;;;;;;;4991916;28;20096;-72
2022/11/10 09:18:54;;;;;;;56.22;36.97;;;;;;;;;;4973266;28;20424;-71
2022/11/10 09:21:39;;;;;;;53.75;36.28;;;;;;;;;;4985804;28;20434;-72
2022/11/10 09:24:23;;;;;;;63.05;36.90;;;;;;;;;;4992293;28;20097;-74
2022/11/10 09:27:29;;;;;;;68.07;37.30;;;;;;;;;;4992478;28;20057;-73
2022/11/10 09:30:13;;;;;;;46.63;31.02;;;;;;;;;;4991988;28;20061;-72
2022/11/10 09:33:00;;;;;;;42.50;28.08;;;;;;;;;;4991968;28;20060;-72
2022/11/10 09:35:44;;;;;;;45.22;29.85;;;;;;;;;;4995391;28;20069;-73
2022/11/10 09:38:29;;;;;;;42.03;29.42;;;;;;;;;;4996094;28;20054;-73
2022/11/10 09:41:14;;;;;;;46.45;28.52;;;;;;;;;;4996032;28;20157;-71
2022/11/10 09:44:05;;;;;;;37.95;26.48;;;;;;;;;;4996560;28;20480;-71
2022/11/10 09:47:19;;;;;;;38.45;27.08;;;;;;;;;;4981359;28;20053;-71
2022/11/10 09:50:05;;;;;;;41.33;27.35;;;;;;;;;;4995493;28;20527;-70
2022/11/10 09:52:57;;;;;;;41.78;25.30;;;;;;;;;;4995605;28;20040;-72
2022/11/10 09:55:43;;;;;;;43.15;26.20;;;;;;;;;;4995754;28;20068;-71
2022/11/10 09:58:42;;;;;;;36.33;23.85;;;;;;;;;;4994623;28;20088;-71
2022/11/10 10:01:46;;;;;;;36.10;24.65;;;;;;;;;;4995444;28;20049;-71
2022/11/10 10:04:36;;;;;;;36.80;24.58;;;;;;;;;;4995284;28;20184;-72
2022/11/10 10:07:36;;;;;;;39.15;23.63;;;;;;;;;;4995233;28;20069;-71
2022/11/10 10:10:36;;;;;;;33.63;23.17;;;;;;;;;;4995205;28;20130;-71
2022/11/10 10:13:37;;;;;;;37.75;22.48;;;;;;;;;;4995074;28;20097;-71
2022/11/10 10:16:39;;;;;;;36.45;23.98;;;;;;;;;;4993253;28;20096;-71
2022/11/10 10:19:43;;;;;;;35.58;23.58;;;;;;;;;;4975330;28;20109;-70
2022/11/10 10:23:05;;;;;;;34.97;22.27;;;;;;;;;;4975768;28;20420;-70
2022/11/10 10:25:52;;;;;;;32.70;22.45;;;;;;;;;;4993481;28;20053;-70
2022/11/10 10:28:44;;;;;;;32.92;22.23;;;;;;;;;;4994779;28;20137;-70
2022/11/10 10:31:37;;;;;;;35.92;22.88;;;;;;;;;;4995146;28;20096;-71
2022/11/10 10:34:24;;;;;;;36.38;21.45;;;;;;;;;;4994931;28;20053;-70
2022/11/10 10:37:31;;;;;;;34.65;22.25;;;;;;;;;;4994040;28;20052;-71
2022/11/10 10:40:21;;;;;;;28.83;21.83;;;;;;;;;;4995188;28;20426;-71
2022/11/10 10:43:05;;;;;;;28.13;18.80;;;;;;;;;;4994482;28;20060;-71
2022/11/10 10:46:08;;;;;;;31.08;19.00;;;;;;;;;;4993472;28;20045;-71
2022/11/10 10:49:19;;;;;;;31.10;18.73;;;;;;;;;;4993266;28;20053;-71
2022/11/10 10:52:23;;;;;;;26.25;17.25;;;;;;;;;;4993480;28;20073;-72
2022/11/10 10:55:12;;;;;;;28.33;17.27;;;;;;;;;;4994695;28;20061;-72
2022/11/10 10:58:03;;;;;;;33.47;19.23;;;;;;;;;;4994087;28;20112;-71
2022/11/10 11:00:51;;;;;;;26.92;17.60;;;;;;;;;;4995042;28;20049;-72
2022/11/10 11:03:42;;;;;;;25.33;17.25;;;;;;;;;;4995008;28;20067;-72
2022/11/10 11:06:31;;;;;;;24.25;16.75;;;;;;;;;;4995420;28;20077;-71
2022/11/10 11:09:25;;;;;;;27.25;17.73;;;;;;;;;;4995043;28;20159;-71
2022/11/10 11:12:20;;;;;;;29.02;19.05;;;;;;;;;;4995385;28;20108;-72
2022/11/10 11:15:25;;;;;;;24.08;16.95;;;;;;;;;;4994755;28;20069;-72
2022/11/10 11:18:18;;;;;;;25.65;16.20;;;;;;;;;;4994704;28;20471;-72
2022/11/10 11:21:33;;;;;;;23.27;16.35;;;;;;;;;;4975446;28;20134;-73
2022/11/10 11:24:40;;;;;;;24.73;16.90;;;;;;;;;;4974381;28;20396;-72
2022/11/10 11:27:47;;;;;;;28.38;18.65;;;;;;;;;;4974739;28;20050;-72
2022/11/10 11:31:00;;;;;;;28.05;19.25;;;;;;;;;;4974807;28;20049;-72
2022/11/10 11:33:51;;;;;;;25.57;17.37;;;;;;;;;;4975318;28;20457;-71
2022/11/10 11:36:43;;;;;;;23.45;15.57;;;;;;;;;;4974847;28;20045;-72
2022/11/10 11:39:52;;;;;;;23.02;14.98;;;;;;;;;;4975255;28;20089;-70
2022/11/10 11:42:49;;;;;;;25.48;15.73;;;;;;;;;;4974710;28;20108;-72
2022/11/10 11:45:41;;;;;;;26.02;15.27;;;;;;;;;;4974954;28;20058;-72
2022/11/10 11:48:59;;;;;;;23.95;16.13;;;;;;;;;;4974945;28;20100;-72
2022/11/10 11:51:56;;;;;;;21.60;13.07;;;;;;;;;;4973848;28;20115;-72
2022/11/10 11:54:52;;;;;;;22.10;14.70;;;;;;;;;;4974530;28;20053;-72
2022/11/10 11:58:05;;;;;;;21.50;12.77;;;;;;;;;;4973438;28;20105;-72
2022/11/10 12:01:01;;;;;;;25.15;13.93;;;;;;;;;;4974085;28;20058;-71
2022/11/10 12:04:14;;;;;;;20.08;13.15;;;;;;;;;;4974613;28;20057;-72
2022/11/10 12:07:31;;;;;;;23.38;13.90;;;;;;;;;;4975418;28;20050;-73
2022/11/10 12:10:51;;;;;;;18.45;12.00;;;;;;;;;;4974884;28;20101;-72
2022/11/10 12:14:00;;;;;;;18.63;12.43;;;;;;;;;;4973977;28;20078;-72
2022/11/10 12:17:02;;;;;;;17.25;12.38;;;;;;;;;;4974357;28;20129;-71
2022/11/10 12:19:55;;;;;;;18.48;11.85;;;;;;;;;;4984553;28;20065;-73
2022/11/10 12:23:08;;;;;;;21.17;13.20;;;;;;;;;;4989154;28;20045;-71
2022/11/10 12:26:07;;;;;;;19.50;11.65;;;;;;;;;;4977932;28;20720;-72
2022/11/10 12:28:55;;;;;;;21.83;13.43;;;;;;;;;;4993108;28;20045;-73
2022/11/10 12:31:44;;;;;;;24.05;14.43;;;;;;;;;;4991320;28;20496;-72
2022/11/10 12:34:35;;;;;;;25.25;14.65;;;;;;;;;;4992801;28;20077;-73
2022/11/10 12:38:02;;;;;;;20.77;13.73;;;;;;;;;;4992296;28;20041;-73
2022/11/10 12:41:04;;;;;;;21.25;14.55;;;;;;;;;;4990858;28;20046;-71
2022/11/10 12:44:13;;;;;;;23.65;15.65;;;;;;;;;;4987514;28;20178;-73
2022/11/10 12:47:02;;;;;;;22.40;14.05;;;;;;;;;;4991392;28;20073;-72
2022/11/10 12:50:09;;;;;;;20.00;13.80;;;;;;;;;;4991867;28;20081;-72
2022/11/10 12:53:04;;;;;;;24.05;14.63;;;;;;;;;;4991778;28;20049;-73
2022/11/10 12:55:55;;;;;;;25.67;16.30;;;;;;;;;;4991774;28;20141;-73
2022/11/10 12:58:39;;;;;;;22.00;14.07;;;;;;;;;;4989545;28;20086;-72
2022/11/10 13:01:24;;;;;;;27.13;16.08;;;;;;;;;;4990157;28;20100;-72
2022/11/10 13:04:13;;;;;;;21.55;13.82;;;;;;;;;;4990385;28;20140;-73
2022/11/10 13:07:05;;;;;;;20.48;12.98;;;;;;;;;;4992540;28;20132;-73
2022/11/10 13:09:49;;;;;;;18.40;13.27;;;;;;;;;;4976979;28;20192;-72
2022/11/10 13:12:34;;;;;;;24.88;17.98;;;;;;;;;;4991452;28;20100;-73
2022/11/10 13:15:37;;;;;;;19.08;13.70;;;;;;;;;;4991974;28;20053;-71
2022/11/10 13:18:30;;;;;;;19.23;13.23;;;;;;;;;;4991715;28;20089;-72
2022/11/10 13:21:15;;;;;;;17.60;14.20;;;;;;;;;;4991785;28;20424;-73
2022/11/10 13:24:01;;;;;;;21.73;14.82;;;;;;;;;;4992636;28;20061;-73
2022/11/10 13:26:49;;;;;;;18.85;12.70;;;;;;;;;;4992295;28;20384;-72
2022/11/10 13:29:36;;;;;;;19.50;12.60;;;;;;;;;;4992545;28;20523;-71
2022/11/10 13:32:31;;;;;;;19.48;12.48;;;;;;;;;;4992419;28;20057;-72
2022/11/10 13:35:27;;;;;;;25.65;13.73;;;;;;;;;;4992334;28;20545;-72
2022/11/10 13:38:31;;;;;;;20.10;12.68;;;;;;;;;;4991067;28;20543;-72
2022/11/10 13:41:16;;;;;;;18.23;12.95;;;;;;;;;;4992575;28;20073;-71
2022/11/10 13:44:00;;;;;;;19.00;12.80;;;;;;;;;;4992167;28;20558;-72
2022/11/10 13:47:08;;;;;;;17.77;12.43;;;;;;;;;;4991904;28;20101;-72
2022/11/10 13:50:18;;;;;;;19.15;12.65;;;;;;;;;;4992440;28;20100;-71
2022/11/10 13:53:05;;;;;;;17.92;12.38;;;;;;;;;;4992242;28;20061;-72
2022/11/10 13:56:07;;;;;;;25.85;15.65;;;;;;;;;;4991879;28;20053;-71
2022/11/10 13:58:51;;;;;;;18.55;12.65;;;;;;;;;;4992778;28;20117;-72
2022/11/10 14:01:35;;;;;;;19.60;13.13;;;;;;;;;;4992046;28;20523;-71
2022/11/10 14:04:42;;;;;;;20.83;13.27;;;;;;;;;;4989485;28;20164;-72
2022/11/10 14:07:30;;;;;;;19.48;11.77;;;;;;;;;;4990621;28;20046;-72
2022/11/10 14:10:19;;;;;;;18.23;12.18;;;;;;;;;;4988468;28;20088;-72
2022/11/10 14:13:11;;;;;;;20.17;12.38;;;;;;;;;;4987326;28;20049;-73
2022/11/10 14:15:55;;;;;;;18.80;11.20;;;;;;;;;;4989611;28;20117;-71
2022/11/10 14:18:46;;;;;;;23.10;12.73;;;;;;;;;;4991451;28;20061;-70
2022/11/10 14:21:46;;;;;;;16.30;12.30;;;;;;;;;;4993361;28;20097;-73
2022/11/10 14:24:38;;;;;;;14.45;11.50;;;;;;;;;;4983217;28;20072;-73
2022/11/10 14:27:32;;;;;;;21.77;12.50;;;;;;;;;;4992896;28;20506;-73
2022/11/10 14:30:20;;;;;;;18.42;12.65;;;;;;;;;;4993586;28;20057;-72
2022/11/10 14:33:09;;;;;;;15.15;11.27;;;;;;;;;;4994581;28;20053;-73
2022/11/10 14:36:00;;;;;;;19.10;12.05;;;;;;;;;;4991357;28;20129;-71
2022/11/10 14:38:45;;;;;;;16.80;11.43;;;;;;;;;;4994697;28;20045;-73
2022/11/10 14:41:30;;;;;;;16.17;11.13;;;;;;;;;;4992123;28;20574;-73
2022/11/10 14:44:24;;;;;;;17.25;11.50;;;;;;;;;;4993030;28;20084;-73
2022/11/10 14:47:26;;;;;;;18.70;10.93;;;;;;;;;;4991295;28;20060;-73
2022/11/10 14:50:13;;;;;;;23.75;15.85;;;;;;;;;;4988200;28;20052;-73
2022/11/10 14:53:22;;;;;;;21.77;15.05;;;;;;;;;;4988774;28;20092;-72
2022/11/10 14:56:15;;;;;;;27.70;15.35;;;;;;;;;;4989994;28;20053;-73
2022/11/10 14:59:06;;;;;;;26.23;16.80;;;;;;;;;;4993488;28;20072;-73
2022/11/10 15:01:54;;;;;;;25.40;16.75;;;;;;;;;;4987101;28;20287;-73
2022/11/10 15:04:42;;;;;;;25.08;16.63;;;;;;;;;;4974312;28;20077;-73
2022/11/10 15:07:26;;;;;;;27.00;17.25;;;;;;;;;;4993410;28;20057;-72
2022/11/10 15:10:15;;;;;;;22.92;17.02;;;;;;;;;;4988755;28;20080;-72
2022/11/10 15:13:10;;;;;;;26.55;15.23;;;;;;;;;;4976044;28;20054;-72
2022/11/10 15:16:24;;;;;;;26.80;16.77;;;;;;;;;;4978614;28;20046;-73
2022/11/10 15:19:28;;;;;;;26.45;16.60;;;;;;;;;;4978687;28;20061;-73
2022/11/10 15:31:31;;;;;;;26.92;17.60;;;;;;;;;;5008483;28;20048;-73
2022/11/10 15:40:25;;;;;;;25.73;17.90;;;;;;;;;;5105854;22;20112;-79
2022/11/10 15:49:26;;;;;;;31.58;19.05;;;;;;;;;;5023167;28;20090;-81
2022/11/10 15:52:15;;;;;;;27.85;18.48;;;;;;;;;;5031071;28;20080;-79
2022/11/10 15:55:01;;;;;;;29.05;17.58;;;;;;;;;;5025226;28;20762;-79
2022/11/10 15:57:45;;;;;;;31.58;18.85;;;;;;;;;;5007480;28;20121;-79
2022/11/10 16:00:32;;;;;;;31.65;19.10;;;;;;;;;;5008533;28;20057;-80
2022/11/10 16:03:18;;;;;;;28.20;19.08;;;;;;;;;;5009518;28;20144;-82
2022/11/10 16:06:04;;;;;;;29.92;18.90;;;;;;;;;;5024163;28;20099;-79
2022/11/10 16:08:50;;;;;;;31.50;19.95;;;;;;;;;;5028388;28;20111;-77
2022/11/10 16:11:34;;;;;;;29.13;18.50;;;;;;;;;;5022396;28;20114;-79
2022/11/10 16:14:19;;;;;;;29.65;20.10;;;;;;;;;;5010133;28;20406;-78
2022/11/10 16:17:05;;;;;;;39.80;19.90;;;;;;;;;;5025055;28;20052;-78
2022/11/10 16:19:51;;;;;;;31.15;18.30;;;;;;;;;;5010284;28;20517;-79
2022/11/10 16:22:36;;;;;;;28.80;19.25;;;;;;;;;;5013426;28;20124;-79
2022/11/10 16:25:20;;;;;;;36.70;20.83;;;;;;;;;;5024034;28;20099;-78
2022/11/10 16:28:06;;;;;;;29.73;20.35;;;;;;;;;;5009784;28;20167;-79
2022/11/10 16:30:51;;;;;;;32.00;20.73;;;;;;;;;;5020019;28;20048;-80
2022/11/10 16:33:36;;;;;;;30.50;19.80;;;;;;;;;;5010219;28;21159;-78
2022/11/10 16:36:26;;;;;;;30.17;20.50;;;;;;;;;;5023128;28;20813;-78
2022/11/10 16:39:15;;;;;;;33.60;21.25;;;;;;;;;;5014093;28;20094;-79
2022/11/10 16:42:00;;;;;;;34.92;21.08;;;;;;;;;;5025476;28;20072;-79
2022/11/10 16:44:47;;;;;;;37.28;21.98;;;;;;;;;;5022433;28;20071;-80
2022/11/10 16:47:32;;;;;;;35.47;21.58;;;;;;;;;;4998032;28;22413;-80
2022/11/10 16:50:34;;;;;;;30.02;20.55;;;;;;;;;;5022698;28;20212;-78
2022/11/10 16:53:28;;;;;;;37.63;21.42;;;;;;;;;;5021748;28;20124;-79
2022/11/10 16:56:14;;;;;;;37.00;22.45;;;;;;;;;;5020731;28;20047;-78
2022/11/10 16:59:00;;;;;;;37.78;22.33;;;;;;;;;;5014011;28;20052;-79
2022/11/10 17:01:47;;;;;;;37.80;22.33;;;;;;;;;;5009408;28;20477;-77